createdAt,value
2022-10-19T00:01:38.139Z,33.93
2022-10-19T00:04:41.620Z,34.17
2022-10-19T00:07:45.014Z,33.60
2022-10-19T00:10:48.488Z,36.78
2022-10-19T00:13:52.892Z,36.70
2022-10-19T00:16:58.152Z,47.03
2022-10-19T00:20:01.979Z,41.50
2022-10-19T00:23:05.310Z,33.60
2022-10-19T00:26:08.966Z,50.83
2022-10-19T00:29:14.266Z,33.22
2022-10-19T00:32:17.623Z,40.80
2022-10-19T00:35:21.014Z,43.50
2022-10-19T00:38:24.439Z,38.88
2022-10-19T00:41:30.543Z,34.65
2022-10-19T00:44:58.546Z,35.10
2022-10-19T00:48:01.894Z,32.43
2022-10-19T00:51:05.297Z,31.03
2022-10-19T00:54:09.489Z,34.88
2022-10-19T00:57:13.609Z,34.15
2022-10-19T01:00:17.032Z,30.63
2022-10-19T01:03:21.266Z,35.73
2022-10-19T01:06:25.236Z,33.80
2022-10-19T01:09:29.307Z,36.55
2022-10-19T01:13:09.802Z,36.45
2022-10-19T01:16:20.327Z,30.05
2022-10-19T01:19:46.467Z,31.43
2022-10-19T01:23:19.212Z,32.40
2022-10-19T01:26:28.600Z,29.13
2022-10-19T01:29:43.401Z,27.98
2022-10-19T01:33:03.676Z,30.45
2022-10-19T01:36:26.276Z,32.73
2022-10-19T01:40:01.547Z,29.27
2022-10-19T01:43:33.893Z,31.73
2022-10-19T01:46:47.172Z,28.83
2022-10-19T01:49:58.829Z,31.17
2022-10-19T01:53:05.138Z,33.83
2022-10-19T01:56:10.453Z,31.30
2022-10-19T01:59:16.442Z,38.90
2022-10-19T02:02:21.919Z,31.55
2022-10-19T02:05:30.812Z,34.03
2022-10-19T02:09:00.196Z,33.10
2022-10-19T02:12:08.645Z,32.70
2022-10-19T02:15:15.062Z,29.90
2022-10-19T02:18:21.999Z,31.15
2022-10-19T02:21:26.263Z,33.88
2022-10-19T02:24:29.631Z,29.30
2022-10-19T02:27:33.400Z,29.03
2022-10-19T02:30:38.972Z,32.22
2022-10-19T02:33:42.334Z,30.88
2022-10-19T02:36:45.910Z,32.10
2022-10-19T02:39:49.249Z,31.97
2022-10-19T02:42:58.396Z,28.50
2022-10-19T02:46:06.294Z,29.67
2022-10-19T02:49:12.002Z,27.17
2022-10-19T02:52:15.662Z,30.25
2022-10-19T02:55:19.171Z,31.33
2022-10-19T02:58:22.490Z,30.33
2022-10-19T03:01:25.948Z,29.73
2022-10-19T03:04:29.410Z,27.70
2022-10-19T03:07:33.137Z,30.00
2022-10-19T03:10:36.782Z,24.70
2022-10-19T03:13:41.266Z,27.37
2022-10-19T03:16:44.571Z,30.45
2022-10-19T03:19:47.831Z,31.25
2022-10-19T03:25:59.831Z,33.03
2022-10-19T03:29:03.383Z,29.57
2022-10-19T03:32:06.908Z,29.88
2022-10-19T03:35:10.305Z,32.63
2022-10-19T03:38:13.988Z,34.22
2022-10-19T03:41:21.423Z,33.17
2022-10-19T03:44:24.794Z,28.30
2022-10-19T03:47:28.197Z,29.00
2022-10-19T03:50:34.146Z,25.15
2022-10-19T03:53:38.251Z,26.00
2022-10-19T03:56:42.275Z,25.87
2022-10-19T03:59:45.651Z,26.73
2022-10-19T04:02:48.986Z,25.27
2022-10-19T04:05:52.624Z,25.92
2022-10-19T04:08:56.350Z,28.27
2022-10-19T04:11:59.769Z,23.60
2022-10-19T04:15:03.290Z,29.67
2022-10-19T04:18:07.153Z,26.65
2022-10-19T04:21:26.946Z,26.30
2022-10-19T04:24:30.276Z,25.83
2022-10-19T04:27:33.941Z,26.53
2022-10-19T04:30:37.559Z,30.10
2022-10-19T04:33:41.648Z,30.23
2022-10-19T04:36:45.209Z,27.02
2022-10-19T04:39:48.693Z,30.13
2022-10-19T04:42:51.920Z,32.27
2022-10-19T04:45:55.233Z,34.37
2022-10-19T04:48:59.868Z,32.03
2022-10-19T04:52:03.395Z,30.95
2022-10-19T04:55:06.958Z,32.35
2022-10-19T04:58:10.287Z,33.43
2022-10-19T05:01:15.280Z,28.80
2022-10-19T05:04:18.752Z,34.42
2022-10-19T05:07:22.058Z,33.70
2022-10-19T05:10:25.979Z,31.17
2022-10-19T05:13:29.327Z,34.17
2022-10-19T05:16:33.231Z,31.83
2022-10-19T05:19:36.887Z,36.50
2022-10-19T05:22:40.567Z,32.92
2022-10-19T05:25:43.935Z,37.22
2022-10-19T05:28:56.706Z,35.17
2022-10-19T05:32:00.389Z,35.20
2022-10-19T05:35:03.878Z,42.97
2022-10-19T05:38:07.263Z,38.05
2022-10-19T05:41:10.930Z,40.55
2022-10-19T05:44:19.769Z,35.40
2022-10-19T05:47:26.193Z,37.47
2022-10-19T05:50:32.384Z,35.85
2022-10-19T05:56:41.927Z,36.25
2022-10-19T05:59:45.336Z,38.83
2022-10-19T06:02:48.754Z,35.00
2022-10-19T06:05:53.231Z,33.78
2022-10-19T06:08:59.077Z,36.28
2022-10-19T06:12:03.080Z,35.42
2022-10-19T06:15:06.739Z,37.17
2022-10-19T06:18:12.532Z,35.47
2022-10-19T06:21:19.638Z,38.00
2022-10-19T06:24:22.926Z,34.60
2022-10-19T06:27:26.334Z,38.15
2022-10-19T06:30:29.822Z,35.00
2022-10-19T06:33:33.372Z,40.33
2022-10-19T06:36:36.829Z,36.53
2022-10-19T06:39:40.177Z,38.72
2022-10-19T06:42:43.556Z,36.10
2022-10-19T06:45:46.925Z,40.80
2022-10-19T06:48:55.302Z,38.37
2022-10-19T06:51:58.975Z,42.75
2022-10-19T06:55:02.720Z,41.70
2022-10-19T06:58:05.946Z,36.47
2022-10-19T07:01:11.895Z,37.57
2022-10-19T07:04:15.213Z,43.97
2022-10-19T07:07:18.630Z,37.97
2022-10-19T07:10:26.079Z,39.45
2022-10-19T07:13:32.013Z,38.78
2022-10-19T07:16:35.440Z,39.03
2022-10-19T07:19:39.080Z,39.23
2022-10-19T07:22:42.415Z,38.42
2022-10-19T07:25:45.674Z,38.03
2022-10-19T07:28:49.771Z,33.65
2022-10-19T07:31:53.140Z,35.87
2022-10-19T07:34:56.483Z,38.27
2022-10-19T07:37:59.744Z,37.20
2022-10-19T07:41:06.058Z,36.42
2022-10-19T07:44:10.958Z,37.05
2022-10-19T07:47:16.787Z,34.07
2022-10-19T07:50:23.329Z,35.60
2022-10-19T07:53:26.791Z,38.35
2022-10-19T07:56:31.451Z,32.58
2022-10-19T07:59:35.505Z,33.80
2022-10-19T08:02:54.760Z,33.43
2022-10-19T08:06:03.890Z,34.50
2022-10-19T08:09:07.426Z,32.10
2022-10-19T08:12:14.795Z,31.38
2022-10-19T08:15:19.004Z,31.67
2022-10-19T08:18:23.165Z,33.37
2022-10-19T08:21:27.807Z,32.27
2022-10-19T08:24:31.211Z,34.53
2022-10-19T08:30:44.778Z,32.33
2022-10-19T08:33:50.765Z,32.60
2022-10-19T08:36:54.065Z,33.60
2022-10-19T08:39:57.349Z,37.83
2022-10-19T08:43:11.707Z,33.85
2022-10-19T08:46:41.276Z,32.90
2022-10-19T08:49:46.512Z,35.73
2022-10-19T08:53:18.369Z,35.13
2022-10-19T08:56:49.233Z,30.65
2022-10-19T09:00:25.050Z,29.15
2022-10-19T09:03:55.287Z,30.90
2022-10-19T09:07:10.739Z,30.70
2022-10-19T09:10:37.522Z,28.10
2022-10-19T09:14:05.835Z,30.00
2022-10-19T09:17:15.296Z,31.88
2022-10-19T09:20:33.702Z,29.85
2022-10-19T09:24:05.819Z,28.00
2022-10-19T09:27:30.272Z,28.43
2022-10-19T09:30:37.824Z,28.85
2022-10-19T09:33:42.012Z,26.45
2022-10-19T09:36:51.750Z,25.33
2022-10-19T09:39:56.203Z,24.70
2022-10-19T09:43:03.531Z,25.03
2022-10-19T09:46:20.476Z,26.85
2022-10-19T09:49:43.871Z,25.20
2022-10-19T09:52:49.185Z,27.30
2022-10-19T09:56:06.778Z,22.70
2022-10-19T09:59:23.389Z,24.23
2022-10-19T10:02:33.955Z,22.58
2022-10-19T10:05:40.667Z,20.73
2022-10-19T10:08:52.983Z,20.98
2022-10-19T10:12:00.896Z,18.80
2022-10-19T10:15:07.200Z,20.27
2022-10-19T10:18:19.165Z,20.65
2022-10-19T10:21:27.401Z,19.50
2022-10-19T10:24:33.317Z,15.40
2022-10-19T10:27:39.443Z,16.10
2022-10-19T10:30:47.207Z,13.47
2022-10-19T10:34:22.505Z,12.52
2022-10-19T10:37:39.397Z,10.10
2022-10-19T10:40:52.548Z,10.18
2022-10-19T10:44:07.370Z,9.27
2022-10-19T10:47:15.798Z,16.93
2022-10-19T10:50:28.976Z,12.13
2022-10-19T10:53:39.434Z,8.82
2022-10-19T10:56:45.606Z,8.45
2022-10-19T11:00:11.340Z,7.43
2022-10-19T11:03:29.528Z,6.50
2022-10-19T11:06:43.659Z,6.53
2022-10-19T11:09:57.981Z,7.00
2022-10-19T11:13:24.148Z,7.70
2022-10-19T11:16:46.058Z,8.00
2022-10-19T11:19:53.860Z,6.57
2022-10-19T11:23:21.729Z,5.72
2022-10-19T11:26:28.503Z,6.25
2022-10-19T11:29:50.786Z,6.15
2022-10-19T11:33:25.649Z,5.80
2022-10-19T11:36:55.070Z,5.37
2022-10-19T11:40:22.242Z,6.10
2022-10-19T11:43:38.816Z,7.03
2022-10-19T11:47:18.444Z,7.78
2022-10-19T11:50:38.613Z,6.23
2022-10-19T11:54:14.452Z,7.57
2022-10-19T11:57:26.207Z,6.40
2022-10-19T12:00:41.340Z,6.88
2022-10-19T12:03:57.481Z,7.57
2022-10-19T12:07:26.838Z,6.27
2022-10-19T12:10:55.662Z,6.63
2022-10-19T12:14:06.117Z,6.68
2022-10-19T12:17:21.762Z,7.03
2022-10-19T12:20:38.361Z,5.85
2022-10-19T12:23:47.097Z,7.50
2022-10-19T12:26:53.282Z,7.60
2022-10-19T12:30:05.650Z,7.20
2022-10-19T12:33:24.115Z,8.77
2022-10-19T12:36:46.480Z,9.95
2022-10-19T12:40:07.005Z,6.10
2022-10-19T12:43:13.571Z,10.43
2022-10-19T12:46:42.956Z,8.00
2022-10-19T12:49:56.626Z,11.13
2022-10-19T12:52:59.876Z,5.80
2022-10-19T12:56:25.090Z,7.07
2022-10-19T12:59:35.083Z,7.07
2022-10-19T13:02:40.716Z,6.70
2022-10-19T13:06:00.149Z,7.75
2022-10-19T13:09:09.537Z,10.75
2022-10-19T13:12:19.657Z,12.00
2022-10-19T13:15:36.290Z,8.40
2022-10-19T13:19:12.112Z,12.00
2022-10-19T13:22:28.957Z,16.50
2022-10-19T13:25:36.096Z,11.05
2022-10-19T13:28:51.922Z,8.40
2022-10-19T13:31:55.502Z,9.70
2022-10-19T13:35:19.854Z,10.73
2022-10-19T13:38:26.581Z,9.20
2022-10-19T13:41:39.185Z,8.02
2022-10-19T13:44:47.344Z,6.93
2022-10-19T13:47:58.365Z,9.47
2022-10-19T13:51:45.993Z,7.35
2022-10-19T13:55:00.253Z,9.13
2022-10-19T13:58:28.370Z,9.68
2022-10-19T14:01:56.827Z,13.43
2022-10-19T14:05:29.340Z,10.03
2022-10-19T14:09:04.796Z,11.43
2022-10-19T14:12:21.374Z,11.13
2022-10-19T14:15:28.092Z,9.77
2022-10-19T14:18:34.995Z,7.77
2022-10-19T14:21:38.606Z,10.10
2022-10-19T14:24:41.862Z,10.75
2022-10-19T14:27:47.606Z,9.05
2022-10-19T14:31:09.411Z,8.32
2022-10-19T14:34:16.317Z,7.40
2022-10-19T14:37:21.133Z,15.47
2022-10-19T14:40:40.475Z,13.77
2022-10-19T14:43:43.901Z,16.33
2022-10-19T14:46:48.814Z,15.95
2022-10-19T14:49:52.992Z,8.97
2022-10-19T14:53:05.656Z,11.97
2022-10-19T14:56:18.827Z,27.38
2022-10-19T14:59:28.438Z,24.77
2022-10-19T15:03:01.503Z,12.07
2022-10-19T15:06:07.265Z,15.97
2022-10-19T15:09:36.762Z,14.00
2022-10-19T15:12:43.519Z,10.27
2022-10-19T15:15:55.190Z,11.85
2022-10-19T15:19:07.097Z,8.85
2022-10-19T15:22:16.358Z,8.07
2022-10-19T15:25:33.932Z,9.43
2022-10-19T15:28:41.558Z,7.00
2022-10-19T15:31:45.338Z,9.93
2022-10-19T15:34:48.745Z,8.32
2022-10-19T15:37:59.317Z,7.67
2022-10-19T15:41:04.965Z,6.73
2022-10-19T15:44:30.560Z,7.30
2022-10-19T15:47:34.542Z,11.93
2022-10-19T15:50:45.762Z,11.77
2022-10-19T15:53:50.989Z,14.13
2022-10-19T15:56:56.491Z,8.90
2022-10-19T16:00:03.483Z,13.35
2022-10-19T16:03:09.222Z,10.43
2022-10-19T16:06:13.179Z,12.38
2022-10-19T16:09:19.560Z,13.83
2022-10-19T16:12:24.415Z,14.73
2022-10-19T16:15:27.822Z,10.77
2022-10-19T16:18:31.535Z,10.88
2022-10-19T16:21:37.042Z,9.18
2022-10-19T16:24:40.600Z,8.27
2022-10-19T16:27:44.001Z,10.77
2022-10-19T16:30:55.718Z,8.70
2022-10-19T16:33:59.141Z,8.25
2022-10-19T16:37:05.820Z,9.90
2022-10-19T16:40:11.448Z,8.80
2022-10-19T16:43:14.913Z,8.13
2022-10-19T16:46:22.636Z,9.73
2022-10-19T16:49:26.240Z,13.38
2022-10-19T16:52:31.927Z,14.52
2022-10-19T16:55:35.447Z,10.60
2022-10-19T16:58:39.867Z,7.37
2022-10-19T17:01:44.614Z,8.02
2022-10-19T17:04:48.087Z,8.52
2022-10-19T17:07:51.807Z,12.73
2022-10-19T17:10:55.722Z,9.67
2022-10-19T17:14:01.948Z,13.10
2022-10-19T17:17:05.601Z,10.32
2022-10-19T17:20:11.356Z,9.98
2022-10-19T17:23:15.399Z,12.73
2022-10-19T17:26:18.803Z,7.70
2022-10-19T17:29:23.094Z,9.10
2022-10-19T17:32:26.814Z,10.45
2022-10-19T17:35:30.414Z,13.93
2022-10-19T17:38:34.297Z,11.25
2022-10-19T17:41:38.188Z,9.97
2022-10-19T17:44:41.583Z,8.87
2022-10-19T17:47:45.151Z,10.48
2022-10-19T17:51:02.954Z,12.57
2022-10-19T17:54:09.238Z,12.75
2022-10-19T17:57:13.245Z,9.83
2022-10-19T18:00:20.197Z,8.40
2022-10-19T18:03:28.636Z,8.30
2022-10-19T18:06:34.749Z,8.70
2022-10-19T18:09:38.454Z,7.50
2022-10-19T18:12:41.915Z,8.27
2022-10-19T18:15:45.516Z,7.63
2022-10-19T18:18:51.875Z,10.85
2022-10-19T18:21:55.303Z,6.80
2022-10-19T18:24:59.110Z,7.95
2022-10-19T18:28:02.724Z,6.87
2022-10-19T18:31:13.264Z,9.37
2022-10-19T18:34:17.744Z,7.18
2022-10-19T18:37:21.698Z,7.95
2022-10-19T18:40:26.165Z,8.52
2022-10-19T18:43:29.690Z,13.37
2022-10-19T18:46:35.245Z,9.47
2022-10-19T18:49:38.952Z,8.68
2022-10-19T18:52:42.571Z,8.55
2022-10-19T18:55:46.431Z,7.78
2022-10-19T18:58:50.405Z,10.87
2022-10-19T19:01:55.257Z,8.33
2022-10-19T19:04:58.985Z,10.52
2022-10-19T19:08:02.786Z,7.80
2022-10-19T19:11:16.788Z,8.30
2022-10-19T19:14:21.622Z,9.70
2022-10-19T19:17:24.918Z,7.37
2022-10-19T19:20:30.856Z,6.43
2022-10-19T19:23:34.515Z,7.50
2022-10-19T19:26:41.514Z,7.07
2022-10-19T19:29:45.160Z,7.83
2022-10-19T19:32:48.685Z,7.50
2022-10-19T19:35:52.381Z,6.95
2022-10-19T19:38:57.575Z,9.55
2022-10-19T19:42:01.187Z,8.45
2022-10-19T19:45:09.163Z,8.73
2022-10-19T19:48:12.826Z,7.00
2022-10-19T19:51:21.275Z,9.05
2022-10-19T19:54:24.946Z,9.13
2022-10-19T19:57:28.923Z,8.07
2022-10-19T20:00:32.909Z,7.13
2022-10-19T20:03:36.571Z,5.37
2022-10-19T20:06:40.916Z,7.65
2022-10-19T20:09:44.895Z,6.63
2022-10-19T20:12:48.817Z,8.23
2022-10-19T20:15:53.849Z,8.23
2022-10-19T20:19:01.936Z,5.97
2022-10-19T20:22:06.358Z,6.85
2022-10-19T20:25:09.958Z,7.20
2022-10-19T20:28:13.772Z,6.47
2022-10-19T20:31:19.347Z,7.10
2022-10-19T20:34:24.115Z,6.57
2022-10-19T20:37:30.238Z,5.82
2022-10-19T20:40:37.548Z,6.60
2022-10-19T20:43:41.180Z,8.32
2022-10-19T20:46:44.607Z,7.83
2022-10-19T20:49:48.706Z,9.20
2022-10-19T20:52:52.118Z,5.35
2022-10-19T20:55:55.456Z,10.70
2022-10-19T20:59:04.657Z,7.25
2022-10-19T21:02:10.350Z,8.67
2022-10-19T21:05:14.156Z,8.50
2022-10-19T21:08:18.789Z,5.82
2022-10-19T21:11:27.247Z,6.65
2022-10-19T21:14:31.036Z,6.88
2022-10-19T21:17:34.452Z,5.60
2022-10-19T21:20:38.111Z,5.77
2022-10-19T21:23:42.132Z,8.93
2022-10-19T21:26:45.771Z,6.13
2022-10-19T21:29:49.234Z,5.68
2022-10-19T21:32:52.566Z,6.27
2022-10-19T21:35:55.823Z,7.30
2022-10-19T21:38:59.423Z,5.50
2022-10-19T21:42:02.738Z,6.20
2022-10-19T21:45:25.544Z,7.30
2022-10-19T21:48:31.379Z,6.83
2022-10-19T21:51:46.720Z,6.80
2022-10-19T21:54:50.045Z,6.05
2022-10-19T21:57:53.480Z,6.32
2022-10-19T22:01:07.609Z,6.05
2022-10-19T22:04:16.820Z,4.37
2022-10-19T22:07:20.162Z,5.97
2022-10-19T22:10:23.696Z,8.93
2022-10-19T22:13:26.959Z,6.28
2022-10-19T22:16:32.321Z,5.63
2022-10-19T22:19:35.684Z,4.60
2022-10-19T22:22:38.994Z,5.73
2022-10-19T22:25:42.343Z,6.20
2022-10-19T22:28:46.094Z,7.80
2022-10-19T22:31:49.489Z,6.40
2022-10-19T22:34:52.785Z,6.40
2022-10-19T22:37:56.076Z,4.63
2022-10-19T22:40:59.395Z,6.35
2022-10-19T22:44:02.871Z,5.40
2022-10-19T22:47:06.246Z,4.00
2022-10-19T22:50:11.865Z,5.57
2022-10-19T22:53:15.329Z,4.57
2022-10-19T22:56:18.653Z,4.90
2022-10-19T22:59:21.994Z,7.57
2022-10-19T23:02:25.283Z,4.25
2022-10-19T23:05:28.597Z,5.10
2022-10-19T23:08:32.071Z,6.30
2022-10-19T23:11:36.223Z,5.80
2022-10-19T23:14:39.538Z,5.20
2022-10-19T23:17:42.782Z,6.72
2022-10-19T23:21:00.813Z,6.27
2022-10-19T23:24:04.361Z,5.07
2022-10-19T23:27:07.733Z,3.60
2022-10-19T23:30:11.747Z,5.95
2022-10-19T23:33:15.456Z,5.22
2022-10-19T23:36:25.307Z,4.87
2022-10-19T23:39:28.718Z,7.93
2022-10-19T23:42:32.041Z,4.88
2022-10-19T23:45:35.346Z,5.03
2022-10-19T23:48:38.978Z,3.55
2022-10-19T23:51:42.342Z,5.30
2022-10-19T23:54:45.638Z,4.63
2022-10-19T23:57:49.054Z,4.72
